createdAt,value
2022-10-09T00:01:24.300Z,101245.45
2022-10-09T00:03:54.655Z,101243.19
2022-10-09T00:06:24.673Z,101246.26
2022-10-09T00:08:53.735Z,101242.60
2022-10-09T00:11:23.903Z,101238.45
2022-10-09T00:13:52.988Z,101241.38
2022-10-09T00:16:23.636Z,101241.80
2022-10-09T00:18:52.610Z,101239.45
2022-10-09T00:21:26.039Z,101239.77
2022-10-09T00:23:56.132Z,101240.83
2022-10-09T00:26:25.018Z,101238.77
2022-10-09T00:28:54.093Z,101239.95
2022-10-09T00:31:22.954Z,101239.98
2022-10-09T00:33:51.285Z,101237.16
2022-10-09T00:36:24.271Z,101230.80
2022-10-09T00:38:54.597Z,101230.09
2022-10-09T00:41:25.069Z,101226.76
2022-10-09T00:43:56.894Z,101222.94
2022-10-09T00:46:33.817Z,101218.90
2022-10-09T00:49:05.241Z,101219.64
2022-10-09T00:51:34.487Z,101216.63
2022-10-09T00:54:05.092Z,101215.27
2022-10-09T00:56:34.553Z,101213.61
2022-10-09T00:59:03.650Z,101214.14
2022-10-09T01:01:31.866Z,101213.88
2022-10-09T01:04:00.408Z,101211.02
2022-10-09T01:06:35.136Z,101212.15
2022-10-09T01:09:06.691Z,101210.77
2022-10-09T01:11:39.492Z,101214.42
2022-10-09T01:14:13.674Z,101212.17
2022-10-09T01:16:45.148Z,101214.65
2022-10-09T01:19:22.635Z,101215.27
2022-10-09T01:22:10.062Z,101218.76
2022-10-09T01:24:39.975Z,101219.44
2022-10-09T01:27:38.153Z,101221.77
2022-10-09T01:30:08.772Z,101219.34
2022-10-09T01:32:40.033Z,101219.22
2022-10-09T01:35:09.334Z,101217.58
2022-10-09T01:37:39.559Z,101219.06
2022-10-09T01:40:09.063Z,101214.05
2022-10-09T01:42:37.311Z,101213.84
2022-10-09T01:45:05.735Z,101218.17
2022-10-09T01:47:34.510Z,101213.77
2022-10-09T01:50:07.803Z,101213.31
2022-10-09T01:52:42.510Z,101211.26
2022-10-09T01:55:49.721Z,101209.57
2022-10-09T01:58:20.660Z,101202.83
2022-10-09T02:01:07.142Z,101204.98
2022-10-09T02:03:36.477Z,101203.17
2022-10-09T02:06:06.545Z,101203.56
2022-10-09T02:08:37.406Z,101205.73
2022-10-09T02:11:06.931Z,101205.09
2022-10-09T02:13:35.926Z,101201.34
2022-10-09T02:16:10.937Z,101200.14
2022-10-09T02:18:45.665Z,101196.17
2022-10-09T02:21:16.628Z,101199.02
2022-10-09T02:23:46.508Z,101196.45
2022-10-09T02:26:14.920Z,101196.77
2022-10-09T02:28:45.973Z,101201.45
2022-10-09T02:31:15.424Z,101198.02
2022-10-09T02:33:43.950Z,101198.33
2022-10-09T02:36:12.637Z,101200.58
2022-10-09T02:38:40.915Z,101199.27
2022-10-09T02:41:09.398Z,101200.88
2022-10-09T02:43:37.880Z,101204.63
2022-10-09T02:46:06.395Z,101207.38
2022-10-09T02:48:34.557Z,101206.71
2022-10-09T02:51:03.221Z,101208.45
2022-10-09T02:53:31.603Z,101208.80
2022-10-09T02:55:59.774Z,101210.90
2022-10-09T02:58:30.356Z,101213.04
2022-10-09T03:00:58.890Z,101213.70
2022-10-09T03:03:27.066Z,101222.30
2022-10-09T03:06:03.021Z,101216.66
2022-10-09T03:08:31.525Z,101216.98
2022-10-09T03:10:59.781Z,101219.17
2022-10-09T03:13:28.467Z,101213.88
2022-10-09T03:16:02.663Z,101209.51
2022-10-09T03:18:31.876Z,101209.77
2022-10-09T03:21:00.261Z,101209.84
2022-10-09T03:23:28.439Z,101211.05
2022-10-09T03:26:01.092Z,101214.20
2022-10-09T03:28:29.948Z,101214.58
2022-10-09T03:30:58.205Z,101219.31
2022-10-09T03:33:26.812Z,101222.77
2022-10-09T03:35:55.147Z,101224.33
2022-10-09T03:38:23.525Z,101232.21
2022-10-09T03:40:52.006Z,101231.37
2022-10-09T03:43:20.902Z,101235.05
2022-10-09T03:45:49.176Z,101232.45
2022-10-09T03:48:17.658Z,101233.79
2022-10-09T03:50:46.447Z,101227.91
2022-10-09T03:53:15.031Z,101225.85
2022-10-09T03:55:44.025Z,101221.77
2022-10-09T03:58:12.485Z,101220.70
2022-10-09T04:00:40.746Z,101226.94
2022-10-09T04:03:09.265Z,101227.30
2022-10-09T04:05:39.040Z,101229.55
2022-10-09T04:08:07.458Z,101230.42
2022-10-09T04:10:36.046Z,101228.93
2022-10-09T04:13:04.528Z,101229.70
2022-10-09T04:15:32.903Z,101226.98
2022-10-09T04:18:01.180Z,101233.59
2022-10-09T04:20:29.616Z,101230.23
2022-10-09T04:22:58.248Z,101234.06
2022-10-09T04:25:26.628Z,101236.73
2022-10-09T04:27:55.109Z,101240.40
2022-10-09T04:30:23.696Z,101239.48
2022-10-09T04:32:52.062Z,101239.84
2022-10-09T04:35:20.759Z,101239.98
2022-10-09T04:37:49.178Z,101240.30
2022-10-09T04:40:17.620Z,101242.96
2022-10-09T04:42:46.399Z,101247.36
2022-10-09T04:45:15.094Z,101252.33
2022-10-09T04:47:43.681Z,101250.02
2022-10-09T04:50:12.263Z,101254.41
2022-10-09T04:52:58.872Z,101254.33
2022-10-09T04:55:27.427Z,101254.98
2022-10-09T04:57:55.833Z,101254.30
2022-10-09T05:00:24.423Z,101258.39
2022-10-09T05:02:52.799Z,101252.42
2022-10-09T05:05:21.179Z,101253.66
2022-10-09T05:07:49.761Z,101259.55
2022-10-09T05:10:18.242Z,101266.84
2022-10-09T05:12:46.677Z,101265.77
2022-10-09T05:15:15.412Z,101272.67
2022-10-09T05:17:43.704Z,101274.95
2022-10-09T05:20:12.173Z,101275.04
2022-10-09T05:22:40.653Z,101274.09
2022-10-09T05:25:09.341Z,101274.10
2022-10-09T05:27:37.682Z,101275.99
2022-10-09T05:30:06.816Z,101277.68
2022-10-09T05:32:35.310Z,101277.31
2022-10-09T05:35:04.510Z,101277.98
2022-10-09T05:37:32.979Z,101276.17
2022-10-09T05:40:01.638Z,101275.66
2022-10-09T05:42:29.841Z,101282.79
2022-10-09T05:44:58.345Z,101285.89
2022-10-09T05:47:26.707Z,101292.44
2022-10-09T05:49:55.083Z,101296.46
2022-10-09T05:52:23.533Z,101306.31
2022-10-09T05:54:51.841Z,101301.73
2022-10-09T05:57:20.529Z,101312.26
2022-10-09T05:59:48.909Z,101310.28
2022-10-09T06:02:17.225Z,101315.27
2022-10-09T06:04:45.565Z,101314.41
2022-10-09T06:07:14.127Z,101317.56
2022-10-09T06:09:42.376Z,101313.86
2022-10-09T06:12:10.568Z,101319.90
2022-10-09T06:14:39.086Z,101317.56
2022-10-09T06:17:07.566Z,101319.23
2022-10-09T06:19:35.742Z,101319.35
2022-10-09T06:22:04.225Z,101321.75
2022-10-09T06:24:32.911Z,101330.33
2022-10-09T06:27:01.187Z,101327.23
2022-10-09T06:29:30.901Z,101326.96
2022-10-09T06:31:59.485Z,101324.90
2022-10-09T06:34:27.660Z,101326.88
2022-10-09T06:36:56.143Z,101323.77
2022-10-09T06:39:25.141Z,101324.15
2022-10-09T06:41:53.619Z,101323.00
2022-10-09T06:44:31.117Z,101322.66
2022-10-09T06:46:59.599Z,101324.14
2022-10-09T06:49:27.770Z,101321.15
2022-10-09T06:51:56.356Z,101324.46
2022-10-09T06:54:24.737Z,101327.64
2022-10-09T06:56:54.549Z,101329.97
2022-10-09T06:59:22.871Z,101329.45
2022-10-09T07:01:51.254Z,101327.45
2022-10-09T07:04:19.487Z,101331.13
2022-10-09T07:06:48.482Z,101331.79
2022-10-09T07:09:17.269Z,101326.31
2022-10-09T07:11:46.464Z,101327.98
2022-10-09T07:14:16.192Z,101328.98
2022-10-09T07:16:45.765Z,101324.89
2022-10-09T07:19:14.989Z,101326.10
2022-10-09T07:21:44.694Z,101325.04
2022-10-09T07:24:13.305Z,101321.48
2022-10-09T07:26:43.112Z,101321.88
2022-10-09T07:29:13.425Z,101325.40
2022-10-09T07:31:41.804Z,101329.04
2022-10-09T07:34:10.285Z,101329.00
2022-10-09T07:36:38.767Z,101328.58
2022-10-09T07:39:07.660Z,101327.29
2022-10-09T07:41:36.041Z,101328.48
2022-10-09T07:44:04.318Z,101327.64
2022-10-09T07:46:34.170Z,101329.48
2022-10-09T07:49:03.270Z,101322.44
2022-10-09T07:51:32.430Z,101317.08
2022-10-09T07:54:02.435Z,101318.23
2022-10-09T07:56:31.953Z,101320.13
2022-10-09T07:59:03.128Z,101321.34
2022-10-09T08:01:32.263Z,101324.85
2022-10-09T08:04:00.837Z,101320.75
2022-10-09T08:06:29.878Z,101318.83
2022-10-09T08:08:59.797Z,101323.69
2022-10-09T08:11:29.215Z,101323.86
2022-10-09T08:13:57.997Z,101318.64
2022-10-09T08:16:27.639Z,101318.42
2022-10-09T08:18:57.309Z,101325.57
2022-10-09T08:21:28.162Z,101324.44
2022-10-09T08:23:57.564Z,101325.96
2022-10-09T08:26:26.849Z,101322.05
2022-10-09T08:28:57.078Z,101320.46
2022-10-09T08:31:26.442Z,101324.97
2022-10-09T08:33:55.359Z,101322.31
2022-10-09T08:36:24.023Z,101320.23
2022-10-09T08:38:52.748Z,101322.94
2022-10-09T08:41:27.482Z,101324.14
2022-10-09T08:44:02.104Z,101318.71
2022-10-09T08:46:34.957Z,101322.30
2022-10-09T08:49:04.396Z,101324.90
2022-10-09T08:51:35.539Z,101321.59
2022-10-09T08:54:06.991Z,101319.45
2022-10-09T08:56:35.783Z,101316.86
2022-10-09T08:59:04.266Z,101315.58
2022-10-09T09:01:39.957Z,101317.02
2022-10-09T09:04:08.555Z,101317.73
2022-10-09T09:06:36.675Z,101321.81
2022-10-09T09:09:24.411Z,101318.23
2022-10-09T09:11:53.200Z,101314.56
2022-10-09T09:14:31.206Z,101315.64
2022-10-09T09:17:02.761Z,101315.92
2022-10-09T09:19:34.280Z,101313.64
2022-10-09T09:22:02.912Z,101312.31
2022-10-09T09:24:38.524Z,101310.48
2022-10-09T09:27:16.337Z,101309.92
2022-10-09T09:29:47.396Z,101308.36
2022-10-09T09:32:18.324Z,101305.84
2022-10-09T09:34:47.329Z,101306.84
2022-10-09T09:37:16.120Z,101311.08
2022-10-09T09:40:31.330Z,101311.23
2022-10-09T09:42:33.463Z,101311.67
2022-10-09T09:45:07.999Z,101310.11
2022-10-09T09:47:40.744Z,101312.28
2022-10-09T09:50:23.274Z,101311.89
2022-10-09T09:52:57.563Z,101314.13
2022-10-09T09:55:28.236Z,101309.29
2022-10-09T09:58:04.307Z,101310.92
2022-10-09T10:00:33.460Z,101311.02
2022-10-09T10:03:11.400Z,101307.16
2022-10-09T10:05:41.215Z,101308.08
2022-10-09T10:08:16.741Z,101302.44
2022-10-09T10:10:48.625Z,101309.52
2022-10-09T10:13:18.957Z,101313.15
2022-10-09T10:15:49.128Z,101307.38
2022-10-09T10:18:18.490Z,101306.04
2022-10-09T10:20:48.699Z,101306.05
2022-10-09T10:23:24.662Z,101306.09
2022-10-09T10:25:55.906Z,101305.61
2022-10-09T10:28:27.007Z,101304.22
2022-10-09T10:30:57.661Z,101302.48
2022-10-09T10:33:29.083Z,101298.29
2022-10-09T10:35:58.744Z,101298.09
2022-10-09T10:38:31.426Z,101297.14
2022-10-09T10:41:20.285Z,101298.98
2022-10-09T10:43:50.776Z,101293.44
2022-10-09T10:46:22.208Z,101295.81
2022-10-09T10:48:52.155Z,101295.93
2022-10-09T10:51:39.207Z,101292.54
2022-10-09T10:54:17.491Z,101291.31
2022-10-09T10:56:48.827Z,101287.19
2022-10-09T10:59:17.248Z,101290.23
2022-10-09T11:01:52.652Z,101288.34
2022-10-09T11:04:47.186Z,101290.76
2022-10-09T11:07:35.945Z,101291.23
2022-10-09T11:10:16.127Z,101286.60
2022-10-09T11:12:48.560Z,101288.52
2022-10-09T11:15:37.869Z,101279.83
2022-10-09T11:18:18.025Z,101275.73
2022-10-09T11:20:49.209Z,101274.30
2022-10-09T11:23:23.542Z,101273.44
2022-10-09T11:25:55.024Z,101270.57
2022-10-09T11:28:43.838Z,101276.45
2022-10-09T11:31:17.731Z,101273.73
2022-10-09T11:33:48.499Z,101271.77
2022-10-09T11:36:18.754Z,101270.99
2022-10-09T11:38:51.028Z,101274.30
2022-10-09T11:41:20.242Z,101275.46
2022-10-09T11:43:48.402Z,101272.61
2022-10-09T11:46:32.836Z,101271.47
2022-10-09T11:49:10.251Z,101277.39
2022-10-09T11:51:41.599Z,101278.46
2022-10-09T11:54:21.143Z,101273.73
2022-10-09T11:56:59.966Z,101279.67
2022-10-09T11:59:34.290Z,101272.67
2022-10-09T12:02:21.661Z,101268.75
2022-10-09T12:04:54.844Z,101270.52
2022-10-09T12:07:26.983Z,101265.06
2022-10-09T12:10:01.704Z,101262.21
2022-10-09T12:12:30.728Z,101261.84
2022-10-09T12:15:09.935Z,101265.10
2022-10-09T12:17:47.837Z,101259.39
2022-10-09T12:20:26.660Z,101260.05
2022-10-09T12:23:24.750Z,101264.03
2022-10-09T12:25:46.952Z,101263.98
2022-10-09T12:28:19.289Z,101266.00
2022-10-09T12:30:49.314Z,101268.27
2022-10-09T12:33:23.075Z,101268.94
2022-10-09T12:36:03.621Z,101271.11
2022-10-09T12:38:32.846Z,101266.63
2022-10-09T12:41:03.063Z,101268.59
2022-10-09T12:43:32.979Z,101265.80
2022-10-09T12:46:01.635Z,101267.43
2022-10-09T12:48:35.782Z,101271.61
2022-10-09T12:51:14.293Z,101267.25
2022-10-09T12:53:47.360Z,101265.32
2022-10-09T12:56:21.076Z,101265.83
2022-10-09T12:58:49.580Z,101268.63
2022-10-09T13:01:18.485Z,101268.77
2022-10-09T13:04:13.167Z,101272.45
2022-10-09T13:06:46.670Z,101270.66
2022-10-09T13:09:27.132Z,101274.23
2022-10-09T13:12:15.788Z,101272.75
2022-10-09T13:14:47.151Z,101271.73
2022-10-09T13:17:28.879Z,101275.11
2022-10-09T13:19:58.525Z,101274.92
2022-10-09T13:22:30.019Z,101271.84
2022-10-09T13:25:00.833Z,101270.29
2022-10-09T13:27:31.364Z,101273.69
2022-10-09T13:30:00.703Z,101269.09
2022-10-09T13:32:29.252Z,101267.59
2022-10-09T13:34:58.474Z,101257.95
2022-10-09T13:37:27.034Z,101258.45
2022-10-09T13:39:56.856Z,101256.67
2022-10-09T13:42:31.187Z,101259.66
2022-10-09T13:44:59.753Z,101263.48
2022-10-09T13:47:28.342Z,101265.29
2022-10-09T13:49:56.620Z,101265.88
2022-10-09T13:52:25.290Z,101265.77
2022-10-09T13:54:53.789Z,101268.77
2022-10-09T13:57:22.064Z,101269.92
2022-10-09T13:59:50.710Z,101270.03
2022-10-09T14:02:19.646Z,101270.81
2022-10-09T14:04:47.820Z,101271.71
2022-10-09T14:07:16.480Z,101274.50
2022-10-09T14:09:45.095Z,101270.16
2022-10-09T14:12:13.266Z,101270.89
2022-10-09T14:14:41.651Z,101273.07
2022-10-09T14:17:10.233Z,101274.48
2022-10-09T14:19:38.409Z,101278.56
2022-10-09T14:22:06.764Z,101281.66
2022-10-09T14:24:35.480Z,101283.40
2022-10-09T14:27:03.859Z,101279.47
2022-10-09T14:29:32.339Z,101287.02
2022-10-09T14:32:00.928Z,101286.29
2022-10-09T14:34:29.511Z,101287.27
2022-10-09T14:36:57.890Z,101288.10
2022-10-09T14:39:26.477Z,101290.57
2022-10-09T14:41:55.265Z,101288.64
2022-10-09T14:44:23.851Z,101288.80
2022-10-09T14:46:52.331Z,101287.20
2022-10-09T14:49:21.839Z,101292.77
2022-10-09T14:51:50.425Z,101294.33
2022-10-09T14:54:18.807Z,101302.41
2022-10-09T14:56:47.083Z,101302.21
2022-10-09T14:59:15.772Z,101304.66
2022-10-09T15:01:44.766Z,101304.91
2022-10-09T15:04:15.248Z,101305.57
2022-10-09T15:06:43.852Z,101307.27
2022-10-09T15:09:12.343Z,101311.49
2022-10-09T15:11:40.541Z,101313.54
2022-10-09T15:14:09.123Z,101322.65
2022-10-09T15:16:38.157Z,101325.69
2022-10-09T15:19:06.719Z,101325.75
2022-10-09T15:21:36.313Z,101328.23
2022-10-09T15:24:05.101Z,101328.56
2022-10-09T15:26:34.111Z,101333.42
2022-10-09T15:29:03.400Z,101333.83
2022-10-09T15:31:33.520Z,101337.91
2022-10-09T15:34:02.618Z,101340.08
2022-10-09T15:36:33.556Z,101347.16
2022-10-09T15:39:05.975Z,101350.02
2022-10-09T15:41:35.459Z,101356.79
2022-10-09T15:44:04.945Z,101361.61
2022-10-09T15:46:34.043Z,101358.64
2022-10-09T15:49:02.728Z,101359.91
2022-10-09T15:51:33.464Z,101365.77
2022-10-09T15:54:01.946Z,101369.84
2022-10-09T15:56:30.838Z,101372.57
2022-10-09T15:58:59.322Z,101375.95
2022-10-09T16:01:27.652Z,101380.52
2022-10-09T16:03:57.011Z,101384.93
2022-10-09T16:06:25.691Z,101388.35
2022-10-09T16:08:58.368Z,101389.89
2022-10-09T16:11:27.179Z,101389.23
2022-10-09T16:13:56.360Z,101394.33
2022-10-09T16:16:26.187Z,101398.21
2022-10-09T16:18:55.070Z,101399.05
2022-10-09T16:21:24.780Z,101401.08
2022-10-09T16:23:58.157Z,101410.95
2022-10-09T16:26:29.612Z,101411.50
2022-10-09T16:28:59.748Z,101417.07
2022-10-09T16:31:30.774Z,101417.89
2022-10-09T16:33:59.171Z,101421.80
2022-10-09T16:36:27.825Z,101424.08
2022-10-09T16:38:57.571Z,101422.91
2022-10-09T16:41:26.770Z,101424.24
2022-10-09T16:43:56.685Z,101428.50
2022-10-09T16:46:27.958Z,101427.42
2022-10-09T16:48:57.441Z,101429.52
2022-10-09T16:51:27.764Z,101432.09
2022-10-09T16:53:57.625Z,101437.45
2022-10-09T16:56:27.209Z,101445.66
2022-10-09T16:58:57.122Z,101447.30
2022-10-09T17:01:27.225Z,101449.40
2022-10-09T17:03:56.505Z,101457.95
2022-10-09T17:06:25.790Z,101464.09
2022-10-09T17:08:55.335Z,101464.40
2022-10-09T17:11:24.533Z,101466.90
2022-10-09T17:13:58.961Z,101469.86
2022-10-09T17:16:29.485Z,101468.35
2022-10-09T17:18:58.481Z,101465.48
2022-10-09T17:21:30.967Z,101468.38
2022-10-09T17:24:04.148Z,101468.64
2022-10-09T17:26:32.656Z,101472.58
2022-10-09T17:29:01.627Z,101475.76
2022-10-09T17:31:30.673Z,101472.38
2022-10-09T17:33:59.976Z,101469.38
2022-10-09T17:36:29.631Z,101466.64
2022-10-09T17:38:58.815Z,101464.70
2022-10-09T17:41:28.030Z,101474.77
2022-10-09T17:43:56.707Z,101472.63
2022-10-09T17:46:26.609Z,101478.01
2022-10-09T17:48:57.104Z,101482.83
2022-10-09T17:51:30.135Z,101490.59
2022-10-09T17:54:01.258Z,101494.44
2022-10-09T17:56:30.861Z,101499.63
2022-10-09T17:59:00.431Z,101501.29
2022-10-09T18:01:29.246Z,101507.23
2022-10-09T18:03:57.891Z,101513.84
2022-10-09T18:06:26.401Z,101521.42
2022-10-09T18:08:55.687Z,101529.73
2022-10-09T18:11:25.178Z,101533.59
2022-10-09T18:13:54.707Z,101537.44
2022-10-09T18:16:36.498Z,101538.80
2022-10-09T18:19:12.605Z,101541.27
2022-10-09T18:21:43.478Z,101544.92
2022-10-09T18:24:12.581Z,101554.45
2022-10-09T18:26:41.177Z,101557.06
2022-10-09T18:29:09.964Z,101559.30
2022-10-09T18:31:38.748Z,101568.73
2022-10-09T18:34:07.430Z,101568.08
2022-10-09T18:36:36.626Z,101569.38
2022-10-09T18:39:08.283Z,101575.27
2022-10-09T18:41:37.281Z,101580.05
2022-10-09T18:44:07.397Z,101582.02
2022-10-09T18:46:41.062Z,101585.55
2022-10-09T18:49:12.121Z,101584.56
2022-10-09T18:51:41.243Z,101585.67
2022-10-09T18:54:13.274Z,101594.41
2022-10-09T18:56:44.657Z,101599.48
2022-10-09T18:59:15.323Z,101604.27
2022-10-09T19:01:43.580Z,101604.41
2022-10-09T19:04:12.769Z,101603.30
2022-10-09T19:06:41.044Z,101608.60
2022-10-09T19:09:09.219Z,101616.33
2022-10-09T19:11:37.928Z,101619.37
2022-10-09T19:14:06.289Z,101622.11
2022-10-09T19:16:35.241Z,101623.74
2022-10-09T19:19:04.785Z,101629.17
2022-10-09T19:21:33.269Z,101630.09
2022-10-09T19:24:04.720Z,101637.73
2022-10-09T19:26:34.005Z,101634.58
2022-10-09T19:29:02.608Z,101641.22
2022-10-09T19:31:32.228Z,101642.57
2022-10-09T19:34:01.313Z,101647.20
2022-10-09T19:36:33.480Z,101650.09
2022-10-09T19:39:02.074Z,101651.71
2022-10-09T19:41:30.751Z,101651.31
2022-10-09T19:43:59.542Z,101656.48
2022-10-09T19:46:28.449Z,101652.91
2022-10-09T19:48:57.735Z,101659.95
2022-10-09T19:51:26.952Z,101664.08
2022-10-09T19:53:56.033Z,101660.63
2022-10-09T19:56:26.397Z,101662.70
2022-10-09T19:58:55.864Z,101665.65
2022-10-09T20:01:26.229Z,101667.89
2022-10-09T20:04:01.941Z,101668.92
2022-10-09T20:06:30.628Z,101672.03
2022-10-09T20:08:59.110Z,101673.30
2022-10-09T20:11:27.591Z,101670.80
2022-10-09T20:13:56.689Z,101667.36
2022-10-09T20:16:25.991Z,101666.79
2022-10-09T20:18:57.396Z,101667.38
2022-10-09T20:21:26.253Z,101666.89
2022-10-09T20:23:55.865Z,101663.05
2022-10-09T20:26:24.835Z,101666.55
2022-10-09T20:28:56.350Z,101665.84
2022-10-09T20:31:26.310Z,101670.27
2022-10-09T20:33:55.504Z,101676.25
2022-10-09T20:36:31.629Z,101681.15
2022-10-09T20:39:01.583Z,101679.95
2022-10-09T20:41:30.577Z,101683.56
2022-10-09T20:44:00.457Z,101683.13
2022-10-09T20:46:30.046Z,101683.27
2022-10-09T20:48:58.378Z,101683.80
2022-10-09T20:51:26.962Z,101681.84
2022-10-09T20:53:56.878Z,101684.59
2022-10-09T20:56:27.005Z,101680.89
2022-10-09T20:58:56.199Z,101683.17
2022-10-09T21:01:25.602Z,101682.05
2022-10-09T21:03:55.620Z,101687.33
2022-10-09T21:06:24.205Z,101683.67
2022-10-09T21:08:52.894Z,101684.50
2022-10-09T21:11:21.271Z,101687.80
2022-10-09T21:13:50.240Z,101687.05
2022-10-09T21:16:20.489Z,101689.53
2022-10-09T21:18:52.865Z,101697.95
2022-10-09T21:21:21.242Z,101702.17
2022-10-09T21:23:53.206Z,101704.21
2022-10-09T21:26:22.826Z,101710.23
2022-10-09T21:28:55.411Z,101709.77
2022-10-09T21:31:28.732Z,101715.43
2022-10-09T21:33:58.401Z,101715.48
2022-10-09T21:37:15.964Z,101717.58
2022-10-09T21:39:35.167Z,101723.95
2022-10-09T21:42:03.785Z,101719.95
2022-10-09T21:44:31.957Z,101724.95
2022-10-09T21:47:00.336Z,101722.20
2022-10-09T21:49:28.922Z,101725.31
2022-10-09T21:51:57.099Z,101728.89
2022-10-09T21:54:25.782Z,101731.52
2022-10-09T21:56:54.268Z,101733.64
2022-10-09T21:59:22.835Z,101732.48
2022-10-09T22:01:51.398Z,101736.46
2022-10-09T22:04:19.814Z,101737.05
2022-10-09T22:06:48.495Z,101744.48
2022-10-09T22:09:16.882Z,101745.23
2022-10-09T22:11:45.363Z,101744.35
2022-10-09T22:14:13.907Z,101743.73
2022-10-09T22:16:42.536Z,101744.55
2022-10-09T22:19:10.810Z,101744.75
2022-10-09T22:21:39.296Z,101746.81
2022-10-09T22:24:08.390Z,101750.05
2022-10-09T22:26:36.973Z,101758.93
2022-10-09T22:29:05.355Z,101764.70
2022-10-09T22:31:33.836Z,101766.61
2022-10-09T22:34:02.422Z,101769.80
2022-10-09T22:36:32.542Z,101766.00
2022-10-09T22:39:03.379Z,101776.50
2022-10-09T22:41:31.865Z,101782.64
2022-10-09T22:44:01.162Z,101785.89
2022-10-09T22:46:34.150Z,101789.14
2022-10-09T22:49:02.838Z,101787.54
2022-10-09T22:51:31.715Z,101794.23
2022-10-09T22:54:00.620Z,101799.33
2022-10-09T22:56:30.524Z,101801.09
2022-10-09T22:58:59.254Z,101803.92
2022-10-09T23:01:38.454Z,101806.70
2022-10-09T23:04:08.493Z,101808.81
2022-10-09T23:06:36.655Z,101811.92
2022-10-09T23:09:07.051Z,101819.98
2022-10-09T23:11:35.561Z,101819.61
2022-10-09T23:14:03.941Z,101821.21
2022-10-09T23:16:32.935Z,101822.53
2022-10-09T23:19:06.442Z,101820.83
2022-10-09T23:21:37.046Z,101821.19
2022-10-09T23:24:06.676Z,101823.15
2022-10-09T23:26:36.182Z,101825.47
2022-10-09T23:29:06.815Z,101828.04
2022-10-09T23:31:36.380Z,101829.86
2022-10-09T23:34:05.420Z,101831.77
2022-10-09T23:36:34.004Z,101831.84
2022-10-09T23:39:03.628Z,101832.16
2022-10-09T23:41:31.991Z,101827.01
2022-10-09T23:44:00.436Z,101828.10
2022-10-09T23:46:29.875Z,101829.35
2022-10-09T23:48:58.051Z,101838.48
2022-10-09T23:51:27.432Z,101838.60
2022-10-09T23:53:56.652Z,101840.58
2022-10-09T23:56:26.412Z,101839.54
2022-10-09T23:58:55.564Z,101838.48
